createdAt,value
2022-07-25T00:02:08.887Z,82.35
2022-07-25T00:04:36.047Z,82.40
2022-07-25T00:07:03.282Z,82.82
2022-07-25T00:09:30.083Z,83.24
2022-07-25T00:12:02.886Z,83.48
2022-07-25T00:14:32.853Z,83.44
2022-07-25T00:16:59.742Z,82.55
2022-07-25T00:19:26.616Z,81.69
2022-07-25T00:21:53.527Z,80.69
2022-07-25T00:24:21.361Z,81.25
2022-07-25T00:26:48.080Z,81.70
2022-07-25T00:29:15.011Z,82.33
2022-07-25T00:31:42.063Z,82.97
2022-07-25T00:34:09.500Z,83.35
2022-07-25T00:36:36.650Z,84.07
2022-07-25T00:39:04.448Z,84.24
2022-07-25T00:41:31.814Z,84.54
2022-07-25T00:43:58.665Z,84.78
2022-07-25T00:46:25.778Z,85.02
2022-07-25T00:48:54.338Z,85.05
2022-07-25T00:51:21.282Z,84.24
2022-07-25T00:53:48.328Z,83.81
2022-07-25T00:56:16.227Z,83.79
2022-07-25T00:58:45.597Z,83.51
2022-07-25T01:01:13.899Z,83.21
2022-07-25T01:03:40.872Z,82.79
2022-07-25T01:06:08.396Z,83.17
2022-07-25T01:08:35.896Z,84.36
2022-07-25T01:11:03.198Z,84.89
2022-07-25T01:13:33.595Z,85.35
2022-07-25T01:16:00.801Z,85.93
2022-07-25T01:18:27.672Z,86.32
2022-07-25T01:20:54.624Z,86.11
2022-07-25T01:23:21.598Z,86.37
2022-07-25T01:25:48.635Z,86.58
2022-07-25T01:28:15.415Z,87.32
2022-07-25T01:30:42.424Z,87.95
2022-07-25T01:33:09.268Z,88.04
2022-07-25T01:35:40.190Z,88.62
2022-07-25T01:38:10.005Z,88.62
2022-07-25T01:40:36.997Z,88.33
2022-07-25T01:43:04.198Z,87.85
2022-07-25T01:45:31.515Z,88.17
2022-07-25T01:47:58.689Z,88.09
2022-07-25T01:50:25.606Z,88.69
2022-07-25T01:52:52.443Z,88.64
2022-07-25T01:55:19.442Z,88.64
2022-07-25T01:57:49.561Z,88.75
2022-07-25T02:00:17.582Z,89.46
2022-07-25T02:02:44.949Z,89.92
2022-07-25T02:05:13.706Z,90.01
2022-07-25T02:07:40.516Z,90.46
2022-07-25T02:10:08.453Z,90.55
2022-07-25T02:12:35.233Z,90.59
2022-07-25T02:15:02.096Z,91.25
2022-07-25T02:17:29.023Z,92.30
2022-07-25T02:19:55.923Z,92.99
2022-07-25T02:22:22.719Z,92.47
2022-07-25T02:24:50.573Z,92.43
2022-07-25T02:27:17.457Z,92.48
2022-07-25T02:29:45.240Z,93.05
2022-07-25T02:32:12.063Z,93.31
2022-07-25T02:34:39.169Z,93.97
2022-07-25T02:37:05.995Z,95.13
2022-07-25T02:39:32.933Z,95.00
2022-07-25T02:41:59.783Z,94.91
2022-07-25T02:44:26.617Z,95.07
2022-07-25T02:46:53.404Z,95.12
2022-07-25T02:49:20.235Z,95.19
2022-07-25T02:51:47.132Z,95.85
2022-07-25T02:54:14.324Z,96.67
2022-07-25T02:56:41.347Z,96.51
2022-07-25T02:59:08.535Z,96.83
2022-07-25T03:01:35.496Z,97.44
2022-07-25T03:04:02.453Z,97.98
2022-07-25T03:06:29.468Z,98.32
2022-07-25T03:08:56.381Z,99.26
2022-07-25T03:11:23.528Z,99.64
2022-07-25T03:13:50.314Z,100.00
2022-07-25T03:16:17.220Z,100.00
2022-07-25T03:18:44.075Z,100.00
2022-07-25T03:21:11.021Z,100.00
2022-07-25T03:23:37.862Z,100.00
2022-07-25T03:26:05.244Z,100.00
2022-07-25T03:28:32.146Z,100.00
2022-07-25T03:30:58.974Z,100.00
2022-07-25T03:33:25.776Z,100.00
2022-07-25T03:35:52.628Z,100.00
2022-07-25T03:38:19.527Z,100.00
2022-07-25T03:40:46.290Z,100.00
2022-07-25T03:43:13.151Z,100.00
2022-07-25T03:45:40.007Z,100.00
2022-07-25T03:48:07.117Z,100.00
2022-07-25T03:50:34.106Z,99.81
2022-07-25T03:53:01.037Z,99.67
2022-07-25T03:55:28.140Z,100.00
2022-07-25T03:57:54.950Z,99.81
2022-07-25T04:00:22.105Z,99.58
2022-07-25T04:02:49.035Z,100.00
2022-07-25T04:05:15.919Z,99.19
2022-07-25T04:07:42.677Z,99.61
2022-07-25T04:10:10.242Z,99.43
2022-07-25T04:12:37.663Z,99.24
2022-07-25T04:15:05.369Z,99.25
2022-07-25T04:17:32.403Z,98.71
2022-07-25T04:19:59.615Z,98.81
2022-07-25T04:22:27.038Z,98.65
2022-07-25T04:24:55.420Z,98.75
2022-07-25T04:27:22.491Z,98.64
2022-07-25T04:29:49.314Z,98.41
2022-07-25T04:32:21.415Z,98.35
2022-07-25T04:34:51.512Z,98.08
2022-07-25T04:37:18.343Z,98.08
2022-07-25T04:39:45.079Z,97.82
2022-07-25T04:42:11.881Z,97.81
2022-07-25T04:44:38.677Z,97.09
2022-07-25T04:47:05.787Z,97.03
2022-07-25T04:49:32.586Z,95.90
2022-07-25T04:51:59.397Z,95.72
2022-07-25T04:54:26.150Z,94.87
2022-07-25T04:56:52.936Z,94.58
2022-07-25T04:59:19.750Z,94.42
2022-07-25T05:01:46.520Z,94.28
2022-07-25T05:04:13.317Z,94.40
2022-07-25T05:06:40.083Z,95.48
2022-07-25T05:09:06.906Z,94.48
2022-07-25T05:11:33.737Z,93.29
2022-07-25T05:14:01.609Z,92.72
2022-07-25T05:16:28.519Z,92.21
2022-07-25T05:18:55.393Z,90.61
2022-07-25T05:21:22.247Z,90.22
2022-07-25T05:23:49.170Z,88.69
2022-07-25T05:26:15.954Z,88.55
2022-07-25T05:28:42.700Z,87.62
2022-07-25T05:31:09.536Z,85.89
2022-07-25T05:33:36.389Z,86.52
2022-07-25T05:36:04.424Z,85.36
2022-07-25T05:38:31.606Z,85.22
2022-07-25T05:40:58.375Z,83.88
2022-07-25T05:43:25.204Z,83.89
2022-07-25T05:45:52.341Z,84.00
2022-07-25T05:48:19.128Z,82.96
2022-07-25T05:50:46.203Z,83.55
2022-07-25T05:53:13.157Z,81.57
2022-07-25T05:55:40.698Z,81.59
2022-07-25T05:58:09.493Z,81.09
2022-07-25T06:00:37.244Z,81.31
2022-07-25T06:03:04.391Z,81.44
2022-07-25T06:05:31.605Z,81.10
2022-07-25T06:07:58.461Z,81.52
2022-07-25T06:10:25.274Z,81.97
2022-07-25T06:12:52.073Z,80.67
2022-07-25T06:15:22.418Z,79.69
2022-07-25T06:17:50.093Z,79.60
2022-07-25T06:20:16.908Z,79.42
2022-07-25T06:22:43.800Z,80.25
2022-07-25T06:25:10.983Z,77.58
2022-07-25T06:27:38.951Z,76.07
2022-07-25T06:30:18.757Z,74.40
2022-07-25T06:32:47.606Z,73.37
2022-07-25T06:35:14.434Z,73.15
2022-07-25T06:37:41.276Z,72.46
2022-07-25T06:40:09.625Z,72.00
2022-07-25T06:42:41.139Z,71.24
2022-07-25T06:45:11.150Z,69.52
2022-07-25T06:47:39.514Z,68.80
2022-07-25T06:50:09.143Z,67.37
2022-07-25T06:52:38.618Z,66.89
2022-07-25T06:55:07.444Z,66.58
2022-07-25T06:57:34.544Z,65.71
2022-07-25T07:00:01.457Z,64.39
2022-07-25T07:02:28.273Z,62.17
2022-07-25T07:04:55.125Z,62.22
2022-07-25T07:07:21.971Z,62.39
2022-07-25T07:09:48.842Z,60.96
2022-07-25T07:12:15.699Z,61.78
2022-07-25T07:14:44.645Z,61.93
2022-07-25T07:17:11.464Z,61.43
2022-07-25T07:19:44.466Z,61.41
2022-07-25T07:22:11.521Z,59.68
2022-07-25T07:24:44.184Z,56.56
2022-07-25T07:27:12.056Z,57.56
2022-07-25T07:29:39.021Z,56.90
2022-07-25T07:32:07.136Z,54.68
2022-07-25T07:34:34.113Z,57.42
2022-07-25T07:37:01.006Z,57.21
2022-07-25T07:39:27.982Z,56.25
2022-07-25T07:41:55.053Z,54.26
2022-07-25T07:44:21.863Z,53.84
2022-07-25T07:46:49.132Z,53.56
2022-07-25T07:49:16.299Z,53.55
2022-07-25T07:51:43.164Z,52.10
2022-07-25T07:54:28.748Z,51.97
2022-07-25T07:56:55.573Z,51.35
2022-07-25T07:59:22.382Z,50.62
2022-07-25T08:01:49.271Z,51.21
2022-07-25T08:04:16.365Z,49.51
2022-07-25T08:06:43.250Z,48.85
2022-07-25T08:09:10.396Z,48.66
2022-07-25T08:11:37.438Z,49.35
2022-07-25T08:14:05.565Z,49.53
2022-07-25T08:16:33.635Z,49.50
2022-07-25T08:19:00.593Z,48.27
2022-07-25T08:21:27.471Z,48.52
2022-07-25T08:23:54.988Z,48.62
2022-07-25T08:26:22.014Z,48.64
2022-07-25T08:28:59.891Z,47.04
2022-07-25T08:31:35.747Z,47.11
2022-07-25T08:34:02.566Z,45.94
2022-07-25T08:36:34.594Z,44.88
2022-07-25T08:39:01.785Z,44.89
2022-07-25T08:41:29.364Z,44.75
2022-07-25T08:43:56.347Z,43.83
2022-07-25T08:46:24.323Z,44.26
2022-07-25T08:48:52.368Z,44.54
2022-07-25T08:51:19.564Z,44.30
2022-07-25T08:53:48.481Z,43.10
2022-07-25T08:56:20.784Z,43.54
2022-07-25T08:58:48.197Z,42.72
2022-07-25T09:01:15.077Z,41.91
2022-07-25T09:03:44.008Z,42.30
2022-07-25T09:06:15.826Z,41.77
2022-07-25T09:08:59.570Z,40.74
2022-07-25T09:11:35.291Z,41.71
2022-07-25T09:14:07.964Z,41.08
2022-07-25T09:16:43.275Z,39.79
2022-07-25T09:19:17.071Z,39.71
2022-07-25T09:21:46.017Z,39.57
2022-07-25T09:24:18.818Z,39.45
2022-07-25T09:26:54.096Z,38.78
2022-07-25T09:29:33.042Z,37.59
2022-07-25T09:32:01.765Z,35.14
2022-07-25T09:34:42.306Z,34.98
2022-07-25T09:37:12.592Z,35.39
2022-07-25T09:39:51.209Z,35.90
2022-07-25T09:42:25.617Z,33.56
2022-07-25T09:45:07.296Z,30.50
2022-07-25T09:47:37.326Z,30.41
2022-07-25T09:50:05.775Z,30.41
2022-07-25T09:52:33.893Z,28.88
2022-07-25T09:55:03.929Z,30.56
2022-07-25T09:57:30.782Z,30.55
2022-07-25T10:00:00.301Z,31.68
2022-07-25T10:02:49.216Z,31.19
2022-07-25T10:05:37.508Z,29.85
2022-07-25T10:08:07.277Z,29.36
2022-07-25T10:10:40.212Z,29.57
2022-07-25T10:13:17.776Z,28.33
2022-07-25T10:15:48.384Z,27.45
2022-07-25T10:18:17.646Z,27.04
2022-07-25T10:20:46.588Z,26.71
2022-07-25T10:23:25.821Z,27.67
2022-07-25T10:26:19.738Z,26.55
2022-07-25T10:28:50.019Z,26.55
2022-07-25T10:31:22.184Z,27.17
2022-07-25T10:34:00.041Z,27.51
2022-07-25T10:36:32.337Z,25.97
2022-07-25T10:39:02.311Z,25.21
2022-07-25T10:41:30.039Z,27.11
2022-07-25T10:44:00.841Z,27.58
2022-07-25T10:46:30.939Z,27.88
2022-07-25T10:49:08.353Z,27.11
2022-07-25T10:51:41.611Z,27.19
2022-07-25T10:54:12.949Z,25.86
2022-07-25T10:56:52.031Z,26.12
2022-07-25T10:59:33.045Z,26.50
2022-07-25T11:02:00.975Z,25.20
2022-07-25T11:04:29.462Z,24.61
2022-07-25T11:06:56.781Z,23.92
2022-07-25T11:09:27.828Z,24.75
2022-07-25T11:11:59.400Z,25.29
2022-07-25T11:14:41.984Z,23.77
2022-07-25T11:17:20.678Z,23.07
2022-07-25T11:20:00.705Z,21.97
2022-07-25T11:22:29.227Z,24.63
2022-07-25T11:24:59.609Z,26.03
2022-07-25T11:27:35.103Z,27.21
2022-07-25T11:30:14.714Z,27.94
2022-07-25T11:32:46.356Z,28.70
2022-07-25T11:35:14.785Z,28.37
2022-07-25T11:37:48.621Z,27.41
2022-07-25T11:40:19.239Z,27.47
2022-07-25T11:42:55.121Z,25.72
2022-07-25T11:45:33.751Z,24.54
2022-07-25T11:48:11.103Z,24.15
2022-07-25T11:50:44.879Z,24.33
2022-07-25T11:53:15.739Z,25.63
2022-07-25T11:55:43.696Z,25.97
2022-07-25T11:58:12.786Z,27.06
2022-07-25T12:00:43.360Z,27.38
2022-07-25T12:03:19.362Z,27.50
2022-07-25T12:05:47.410Z,27.94
2022-07-25T12:08:21.361Z,28.24
2022-07-25T12:10:51.386Z,28.03
2022-07-25T12:13:27.055Z,28.03
2022-07-25T12:15:56.348Z,27.60
2022-07-25T12:18:23.246Z,27.50
2022-07-25T12:20:50.586Z,26.58
2022-07-25T12:23:17.434Z,26.73
2022-07-25T12:25:46.446Z,27.11
2022-07-25T12:28:14.356Z,27.11
2022-07-25T12:30:43.086Z,26.89
2022-07-25T12:33:11.317Z,26.55
2022-07-25T12:35:38.334Z,25.62
2022-07-25T12:38:05.423Z,26.88
2022-07-25T12:40:32.495Z,26.54
2022-07-25T12:43:00.151Z,28.49
2022-07-25T12:45:28.019Z,28.98
2022-07-25T12:47:55.068Z,30.34
2022-07-25T12:50:21.981Z,31.39
2022-07-25T12:52:48.865Z,31.42
2022-07-25T12:55:18.041Z,31.24
2022-07-25T12:57:45.517Z,30.62
2022-07-25T13:00:15.491Z,30.50
2022-07-25T13:02:42.519Z,29.55
2022-07-25T13:05:10.342Z,28.60
2022-07-25T13:07:37.493Z,28.02
2022-07-25T13:10:05.303Z,24.98
2022-07-25T13:12:32.203Z,25.35
2022-07-25T13:14:58.997Z,24.31
2022-07-25T13:17:27.704Z,22.81
2022-07-25T13:19:55.539Z,23.21
2022-07-25T13:22:22.549Z,21.95
2022-07-25T13:24:49.497Z,23.41
2022-07-25T13:27:18.673Z,21.56
2022-07-25T13:29:45.850Z,22.16
2022-07-25T13:32:13.729Z,23.43
2022-07-25T13:34:40.680Z,24.51
2022-07-25T13:37:07.646Z,25.78
2022-07-25T13:39:35.824Z,24.10
2022-07-25T13:42:03.588Z,23.61
2022-07-25T13:44:30.426Z,24.16
2022-07-25T13:46:58.773Z,24.63
2022-07-25T13:49:26.108Z,24.84
2022-07-25T13:51:53.292Z,25.44
2022-07-25T13:54:20.123Z,24.31
2022-07-25T13:56:47.612Z,25.06
2022-07-25T13:59:20.501Z,24.19
2022-07-25T14:01:47.646Z,24.05
2022-07-25T14:04:14.626Z,24.92
2022-07-25T14:06:41.908Z,25.35
2022-07-25T14:09:09.427Z,26.07
2022-07-25T14:11:36.661Z,25.77
2022-07-25T14:14:03.853Z,25.14
2022-07-25T14:16:31.144Z,25.12
2022-07-25T14:18:58.070Z,25.58
2022-07-25T14:21:25.494Z,25.21
2022-07-25T14:23:52.638Z,25.16
2022-07-25T14:26:19.769Z,25.78
2022-07-25T14:28:46.739Z,25.20
2022-07-25T14:31:13.564Z,25.87
2022-07-25T14:33:40.759Z,26.90
2022-07-25T14:36:09.964Z,26.15
2022-07-25T14:38:36.760Z,26.32
2022-07-25T14:41:06.655Z,26.92
2022-07-25T14:43:34.726Z,27.54
2022-07-25T14:46:01.570Z,26.82
2022-07-25T14:48:28.611Z,26.62
2022-07-25T14:50:55.449Z,27.64
2022-07-25T14:53:22.343Z,27.06
2022-07-25T14:55:49.172Z,26.33
2022-07-25T14:58:16.056Z,25.41
2022-07-25T15:00:43.766Z,25.53
2022-07-25T15:03:10.926Z,27.25
2022-07-25T15:05:38.664Z,27.88
2022-07-25T15:08:06.598Z,28.53
2022-07-25T15:10:33.584Z,29.14
2022-07-25T15:13:20.845Z,28.71
2022-07-25T15:15:48.199Z,28.97
2022-07-25T15:18:15.087Z,27.41
2022-07-25T15:20:42.076Z,26.13
2022-07-25T15:23:08.958Z,26.95
2022-07-25T15:26:00.631Z,27.20
2022-07-25T15:28:23.469Z,26.85
2022-07-25T15:30:51.365Z,26.76
2022-07-25T15:33:19.108Z,26.07
2022-07-25T15:35:47.216Z,26.68
2022-07-25T15:38:15.851Z,26.76
2022-07-25T15:40:43.671Z,27.36
2022-07-25T15:43:10.591Z,27.71
2022-07-25T15:45:41.760Z,28.71
2022-07-25T15:48:11.094Z,29.41
2022-07-25T15:50:40.538Z,29.35
2022-07-25T15:53:07.818Z,29.86
2022-07-25T15:55:35.250Z,30.28
2022-07-25T15:58:02.290Z,29.30
2022-07-25T16:00:29.946Z,28.69
2022-07-25T16:02:57.529Z,28.00
2022-07-25T16:05:24.815Z,27.32
2022-07-25T16:07:52.418Z,27.38
2022-07-25T16:10:19.480Z,26.53
2022-07-25T16:12:46.419Z,26.34
2022-07-25T16:15:13.347Z,25.73
2022-07-25T16:17:40.465Z,25.92
2022-07-25T16:20:10.029Z,25.57
2022-07-25T16:22:37.081Z,24.99
2022-07-25T16:25:04.575Z,24.33
2022-07-25T16:27:31.877Z,23.86
2022-07-25T16:29:59.319Z,23.72
2022-07-25T16:32:26.127Z,23.58
2022-07-25T16:34:53.314Z,23.79
2022-07-25T16:37:21.135Z,24.17
2022-07-25T16:39:48.013Z,24.61
2022-07-25T16:42:15.004Z,24.78
2022-07-25T16:44:41.915Z,25.25
2022-07-25T16:47:09.245Z,25.30
2022-07-25T16:49:36.108Z,25.31
2022-07-25T16:52:02.992Z,25.07
2022-07-25T16:54:29.830Z,25.75
2022-07-25T16:56:59.602Z,26.50
2022-07-25T16:59:26.917Z,27.41
2022-07-25T17:01:54.066Z,27.89
2022-07-25T17:04:21.225Z,28.00
2022-07-25T17:06:49.186Z,28.71
2022-07-25T17:09:16.312Z,29.89
2022-07-25T17:11:43.488Z,31.49
2022-07-25T17:14:10.289Z,32.24
2022-07-25T17:16:39.456Z,33.45
2022-07-25T17:19:06.727Z,34.02
2022-07-25T17:21:33.755Z,34.77
2022-07-25T17:24:00.573Z,36.10
2022-07-25T17:26:27.511Z,36.36
2022-07-25T17:28:55.514Z,37.61
2022-07-25T17:31:24.315Z,38.38
2022-07-25T17:33:51.255Z,38.94
2022-07-25T17:36:19.161Z,39.33
2022-07-25T17:38:45.983Z,39.68
2022-07-25T17:41:12.730Z,40.55
2022-07-25T17:43:40.540Z,40.97
2022-07-25T17:46:10.441Z,41.48
2022-07-25T17:48:37.412Z,42.35
2022-07-25T17:51:06.142Z,43.49
2022-07-25T17:53:32.971Z,44.31
2022-07-25T17:55:59.791Z,44.69
2022-07-25T17:58:26.541Z,45.50
2022-07-25T18:00:56.864Z,45.83
2022-07-25T18:03:26.556Z,46.46
2022-07-25T18:05:54.060Z,47.29
2022-07-25T18:08:21.638Z,47.54
2022-07-25T18:10:49.963Z,47.61
2022-07-25T18:13:17.857Z,47.96
2022-07-25T18:15:45.884Z,48.05
2022-07-25T18:18:16.949Z,48.46
2022-07-25T18:20:47.463Z,49.43
2022-07-25T18:23:14.387Z,50.21
2022-07-25T18:25:41.390Z,50.45
2022-07-25T18:28:08.478Z,50.34
2022-07-25T18:30:35.304Z,51.38
2022-07-25T18:33:02.083Z,51.72
2022-07-25T18:35:29.076Z,52.83
2022-07-25T18:37:55.881Z,52.44
2022-07-25T18:40:22.758Z,52.05
2022-07-25T18:42:49.527Z,53.42
2022-07-25T18:45:16.354Z,53.54
2022-07-25T18:47:43.843Z,54.17
2022-07-25T18:50:10.743Z,53.63
2022-07-25T18:52:37.884Z,54.16
2022-07-25T18:55:06.855Z,55.09
2022-07-25T18:57:33.923Z,55.39
2022-07-25T19:00:03.396Z,55.04
2022-07-25T19:02:30.694Z,56.32
2022-07-25T19:04:57.561Z,57.45
2022-07-25T19:07:26.021Z,56.75
2022-07-25T19:09:52.907Z,57.52
2022-07-25T19:12:19.909Z,57.39
2022-07-25T19:14:46.822Z,57.67
2022-07-25T19:17:13.859Z,57.91
2022-07-25T19:19:40.736Z,58.27
2022-07-25T19:22:08.176Z,58.31
2022-07-25T19:24:35.132Z,58.30
2022-07-25T19:27:06.985Z,59.23
2022-07-25T19:29:33.933Z,59.51
2022-07-25T19:32:00.734Z,60.11
2022-07-25T19:34:28.884Z,60.12
2022-07-25T19:36:56.485Z,59.64
2022-07-25T19:39:24.951Z,60.16
2022-07-25T19:41:52.628Z,61.33
2022-07-25T19:44:20.173Z,62.11
2022-07-25T19:46:52.274Z,62.33
2022-07-25T19:49:19.191Z,62.62
2022-07-25T19:51:46.104Z,63.31
2022-07-25T19:54:12.973Z,64.11
2022-07-25T19:56:39.768Z,64.62
2022-07-25T19:59:06.687Z,64.61
2022-07-25T20:01:37.022Z,64.83
2022-07-25T20:04:05.614Z,64.49
2022-07-25T20:06:32.780Z,65.66
2022-07-25T20:08:59.698Z,66.81
2022-07-25T20:11:26.639Z,67.13
2022-07-25T20:13:54.717Z,67.36
2022-07-25T20:16:21.622Z,67.70
2022-07-25T20:18:48.567Z,67.52
2022-07-25T20:21:17.961Z,67.59
2022-07-25T20:23:45.707Z,68.35
2022-07-25T20:26:13.028Z,67.94
2022-07-25T20:28:40.087Z,67.98
2022-07-25T20:31:08.343Z,68.52
2022-07-25T20:33:36.083Z,68.99
2022-07-25T20:36:03.389Z,69.39
2022-07-25T20:38:31.813Z,69.67
2022-07-25T20:41:00.146Z,70.37
2022-07-25T20:43:27.190Z,71.06
2022-07-25T20:45:54.113Z,71.24
2022-07-25T20:48:20.977Z,71.35
2022-07-25T20:50:47.946Z,71.99
2022-07-25T20:53:14.819Z,72.21
2022-07-25T20:55:42.019Z,73.00
2022-07-25T20:58:08.866Z,72.47
2022-07-25T21:00:35.668Z,72.85
2022-07-25T21:03:02.859Z,73.57
2022-07-25T21:05:29.751Z,73.25
2022-07-25T21:07:57.127Z,73.67
2022-07-25T21:10:24.196Z,73.14
2022-07-25T21:12:51.234Z,73.40
2022-07-25T21:15:18.306Z,73.88
2022-07-25T21:17:45.140Z,73.55
2022-07-25T21:20:13.741Z,73.43
2022-07-25T21:22:41.400Z,73.82
2022-07-25T21:25:08.859Z,74.98
2022-07-25T21:27:36.632Z,74.30
2022-07-25T21:30:08.178Z,74.68
2022-07-25T21:32:35.051Z,74.99
2022-07-25T21:35:02.588Z,75.91
2022-07-25T21:37:29.488Z,76.27
2022-07-25T21:39:56.328Z,77.01
2022-07-25T21:42:23.096Z,77.66
2022-07-25T21:44:49.875Z,78.09
2022-07-25T21:47:16.859Z,79.11
2022-07-25T21:50:02.149Z,79.52
2022-07-25T21:52:34.731Z,79.33
2022-07-25T21:55:04.208Z,79.15
2022-07-25T21:57:31.573Z,79.35
2022-07-25T21:59:58.523Z,80.35
2022-07-25T22:02:25.517Z,80.00
2022-07-25T22:04:52.481Z,80.33
2022-07-25T22:07:19.459Z,80.15
2022-07-25T22:09:46.252Z,79.98
2022-07-25T22:12:14.156Z,80.43
2022-07-25T22:14:40.971Z,80.37
2022-07-25T22:17:08.584Z,80.32
2022-07-25T22:19:35.389Z,80.89
2022-07-25T22:22:02.934Z,80.25
2022-07-25T22:24:29.784Z,80.50
2022-07-25T22:26:56.615Z,80.16
2022-07-25T22:29:23.451Z,80.13
2022-07-25T22:31:50.500Z,80.90
2022-07-25T22:34:17.457Z,80.97
2022-07-25T22:36:44.265Z,80.62
2022-07-25T22:39:12.705Z,81.16
2022-07-25T22:41:39.629Z,81.33
2022-07-25T22:44:06.617Z,81.12
2022-07-25T22:46:34.519Z,81.06
2022-07-25T22:49:02.224Z,80.70
2022-07-25T22:51:29.711Z,80.41
2022-07-25T22:53:58.013Z,79.80
2022-07-25T22:56:25.880Z,79.98
2022-07-25T22:58:53.111Z,79.74
2022-07-25T23:01:20.763Z,79.65
2022-07-25T23:03:50.198Z,79.91
2022-07-25T23:06:19.306Z,79.04
2022-07-25T23:08:46.707Z,79.32
2022-07-25T23:11:13.510Z,79.01
2022-07-25T23:13:40.319Z,78.68
2022-07-25T23:16:10.125Z,78.68
2022-07-25T23:18:38.084Z,78.46
2022-07-25T23:21:04.961Z,78.61
2022-07-25T23:23:32.076Z,78.43
2022-07-25T23:25:58.985Z,79.05
2022-07-25T23:28:25.970Z,79.53
2022-07-25T23:30:52.836Z,79.87
2022-07-25T23:33:25.300Z,79.57
2022-07-25T23:35:53.284Z,79.88
2022-07-25T23:38:20.474Z,80.19
2022-07-25T23:40:47.431Z,80.35
2022-07-25T23:43:16.988Z,80.51
2022-07-25T23:45:59.368Z,80.56
2022-07-25T23:48:27.843Z,80.99
2022-07-25T23:50:55.908Z,81.26
2022-07-25T23:53:22.977Z,81.52
2022-07-25T23:55:49.782Z,81.54
2022-07-25T23:58:16.947Z,81.76
